Latest Weather Observations for Keith West

IDS60801

Issued at 9:02 am CDT Saturday 28 February 2015 (issued every 30 minutes, with the page automatically refreshed every 10 minutes)

About weather observations | Map of weather stations | Latest weather observations for SA | Other Formats
Station Details ID: 025557 Name: MUNKORA Lat: -36.11 Lon: 140.33 Height: 27.0 m
Data from the previous 72 hours. | See also: Recent months for locations in South Australia
Date/Time
CDT
Temp
°C
App
Temp
°C
Dew
Point
Rel
Hum
%
Delta-T
°C
Wind Press
QNH
hPa
Press
MSL
hPa
Rain
since 9 am
mm
Dir
 
Spd
km/h
Gust
km/h
Spd
kts
Gust
kts
28/09:00am 26.5 22.9 9.8 35 9.3 N 19 28 10 15 1003.9 1003.8 0.0
28/08:30am 25.8 22.9 9.6 36 8.9 N 15 20 8 11 1004.3 1004.2 0.0
28/08:00am 24.3 22.2 11.3 44 7.3 NE 13 19 7 10 1004.2 1004.1 0.0
28/07:30am 23.8 21.7 12.4 48 6.5 NE 15 20 8 11 1004.1 1004.0 0.0
28/07:00am 23.2 21.2 12.8 52 6.0 NE 15 19 8 10 1003.8 1003.7 0.0
28/06:30am 23.1 21.3 13.3 54 5.7 NE 15 20 8 11 1003.7 1003.6 0.0
28/06:00am 22.4 20.4 14.0 59 4.9 ENE 17 24 9 13 1003.7 1003.6 0.0
28/05:30am 22.9 20.6 13.1 54 5.7 NE 17 20 9 11 1004.0 1003.9 0.0
28/05:00am 22.8 20.1 13.6 56 5.3 NE 20 28 11 15 1003.9 1003.8 0.0
28/04:30am 22.4 20.2 14.5 61 4.7 NE 19 26 10 14 1003.8 1003.7 0.0
28/04:00am 22.1 20.9 15.0 64 4.2 NE 15 22 8 12 1004.6 1004.5 0.0
28/03:30am 21.9 20.4 15.3 66 3.9 NE 17 22 9 12 1005.2 1005.1 0.0
28/03:00am 21.2 20.5 16.4 74 2.9 NE 15 20 8 11 1005.6 1005.5 0.0
28/02:30am 20.9 22.2 17.5 81 2.1 NE 7 9 4 5 1006.5 1006.4 0.0
28/02:00am 20.9 23.3 17.1 79 2.3 CALM 0 0 0 0 1007.4 1007.3 0.0
28/01:30am 21.2 22.8 17.0 77 2.6 SW 4 4 2 2 1008.0 1007.9 0.0
28/01:00am 21.9 23.1 15.0 65 4.1 SSW 2 6 1 3 1008.3 1008.2 0.0
28/12:30am 22.6 22.7 13.9 58 5.1 SE 6 7 3 4 1007.9 1007.8 0.0
28/12:00am 22.6 23.2 14.2 59 4.9 E 4 4 2 2 1008.3 1008.2 0.0
 
Date/Time
CDT
Temp
°C
App
Temp
°C
Dew
Point
Rel
Hum
%
Delta-T
°C
Wind Press
QNH
hPa
Press
MSL
hPa
Rain
since 9 am
mm
Dir
 
Spd
km/h
Gust
km/h
Spd
kts
Gust
kts
27/11:30pm 22.6 22.5 13.9 58 5.1 ESE 7 11 4 6 1008.5 1008.4 0.0
27/11:00pm 22.9 22.3 13.4 55 5.5 ESE 9 13 5 7 1008.8 1008.7 0.0
27/10:30pm 23.2 23.0 13.7 55 5.5 SSE 7 11 4 6 1009.1 1009.0 0.0
27/10:00pm 23.4 22.1 13.6 54 5.7 SSE 13 19 7 10 1009.1 1009.0 0.0
27/09:30pm 24.4 22.9 13.0 49 6.6 SSE 13 20 7 11 1009.1 1009.0 0.0
27/09:00pm 24.7 22.7 12.6 47 7.0 SSE 15 22 8 12 1008.6 1008.5 0.0
27/08:30pm 25.3 22.6 12.9 46 7.2 SSE 19 28 10 15 1008.4 1008.3 0.0
27/08:00pm 26.3 24.2 12.4 42 8.0 SSE 15 20 8 11 1007.9 1007.8 0.0
27/07:30pm 27.6 24.5 9.0 31 10.3 SSE 15 22 8 12 1007.3 1007.2 0.0
27/07:00pm 28.3 25.0 9.6 31 10.4 S 17 24 9 13 1007.4 1007.3 0.0
27/06:30pm 29.1 25.1 10.3 31 10.7 S 22 26 12 14 1007.0 1006.9 0.0
27/06:00pm 29.5 25.9 10.6 31 10.8 S 20 26 11 14 1006.8 1006.7 0.0
27/05:30pm 29.9 25.3 10.9 31 10.9 SSW 26 32 14 17 1006.8 1006.7 0.0
27/05:00pm 31.1 27.8 11.5 30 11.4 SSW 20 37 11 20 1006.6 1006.5 0.0
27/04:30pm 32.0 29.8 10.7 27 12.3 SSW 13 22 7 12 1006.6 1006.5 0.0
27/04:00pm 32.0 30.2 10.7 27 12.3 SW 11 19 6 10 1006.7 1006.6 0.0
27/03:30pm 32.0 31.2 11.2 28 12.1 WSW 6 15 3 8 1006.9 1006.8 0.0
27/03:00pm 32.2 31.1 10.8 27 12.4 S 7 15 4 8 1007.1 1007.0 0.0
27/02:30pm 30.9 30.0 10.8 29 11.6 W 6 15 3 8 1007.7 1007.6 0.0
27/02:00pm 30.5 29.0 10.5 29 11.4 WSW 9 17 5 9 1008.1 1008.0 0.0
27/01:30pm 29.7 29.2 10.8 31 10.8 WNW 4 9 2 5 1008.5 1008.4 0.0
27/01:00pm 28.5 27.6 10.7 33 10.1 NNE 6 13 3 7 1008.8 1008.7 0.0
27/12:30pm 27.5 26.2 11.1 36 9.3 NNW 9 15 5 8 1009.5 1009.4 0.0
27/12:00pm 26.5 26.0 12.5 41 8.1 N 7 15 4 8 1010.0 1009.9 0.0
27/11:30am 25.4 24.6 12.9 45 7.3 NNE 9 17 5 9 1010.6 1010.5 0.0
27/11:00am 24.4 23.9 12.7 48 6.7 NNE 7 13 4 7 1010.8 1010.7 0.0
27/10:30am 23.1 21.8 12.4 51 6.1 NNE 11 19 6 10 1011.1 1011.0 0.0
27/10:00am 21.9 20.7 12.7 56 5.2 NNE 11 15 6 8 1011.4 1011.3 0.0
27/09:30am 20.8 19.8 13.3 62 4.3 NNE 11 15 6 8 1011.6 1011.5 0.0
27/09:00am 19.6 18.3 13.8 69 3.3 NE 13 17 7 9 1011.5 1011.4 0.0
27/08:30am 18.3 17.3 13.4 73 2.8 E 11 17 6 9 1011.4 1011.3 0.0
27/08:00am 16.3 16.5 13.2 82 1.7 E 4 6 2 3 1011.3 1011.2 0.0
27/07:30am 14.1 14.2 12.7 91 0.8 E 4 4 2 2 1011.0 1010.9 0.0
27/07:00am 12.4 11.9 10.8 90 0.8 ESE 4 6 2 3 1010.7 1010.6 0.0
27/06:30am 12.9 12.2 11.3 90 0.8 ESE 6 6 3 3 1010.5 1010.4 0.0
27/06:00am 13.0 12.6 11.2 89 1.0 E 4 6 2 3 1010.2 1010.1 0.0
27/05:30am 13.8 13.7 12.2 90 0.9 E 4 6 2 3 1010.1 1010.0 0.0
27/05:00am 13.5 12.9 11.7 89 1.0 E 6 7 3 4 1009.9 1009.8 0.0
27/04:30am 13.9 13.3 11.8 87 1.1 SE 6 6 3 3 1010.2 1010.1 0.0
27/04:00am 14.1 13.5 11.8 86 1.2 E 6 7 3 4 1010.3 1010.2 0.0
27/03:30am 14.5 13.4 12.0 85 1.4 ESE 9 11 5 6 1010.3 1010.2 0.0
27/03:00am 15.1 14.7 12.4 84 1.5 SE 6 7 3 4 1010.6 1010.5 0.0
27/02:30am 15.3 14.8 12.2 82 1.7 SE 6 7 3 4 1010.4 1010.3 0.0
27/02:00am 16.0 15.5 12.6 80 1.9 SE 7 11 4 6 1011.0 1010.9 0.0
27/01:30am 16.6 16.1 12.8 78 2.1 SSE 7 11 4 6 1011.5 1011.4 0.0
27/01:00am 16.4 15.7 12.0 75 2.4 S 7 9 4 5 1011.6 1011.5 0.0
27/12:30am 16.9 15.8 11.8 72 2.8 S 9 11 5 6 1011.7 1011.6 0.0
27/12:00am 17.1 16.0 11.8 71 2.9 S 9 11 5 6 1011.9 1011.8 0.0
 
Date/Time
CDT
Temp
°C
App
Temp
°C
Dew
Point
Rel
Hum
%
Delta-T
°C
Wind Press
QNH
hPa
Press
MSL
hPa
Rain
since 9 am
mm
Dir
 
Spd
km/h
Gust
km/h
Spd
kts
Gust
kts
26/11:30pm 18.1 16.2 11.9 67 3.4 SSW 13 15 7 8 1011.9 1011.8 0.0
26/11:00pm 18.0 16.1 10.6 62 4.0 SSW 11 15 6 8 1012.0 1011.9 0.0
26/10:30pm 18.3 16.2 9.6 57 4.6 SSW 11 15 6 8 1011.8 1011.7 0.0
26/10:00pm 18.6 16.8 9.4 55 4.8 SSW 9 11 5 6 1011.5 1011.4 0.0
26/09:30pm 19.4 17.2 9.3 52 5.3 SSW 11 15 6 8 1011.4 1011.3 0.0
26/09:00pm 20.3 17.7 9.5 50 5.8 SSW 13 19 7 10 1011.3 1011.2 0.0
26/08:30pm 21.1 18.8 10.3 50 5.9 SW 13 19 7 10 1011.0 1010.9 0.0
26/08:00pm 22.1 19.2 10.9 49 6.2 SSW 17 22 9 12 1010.7 1010.6 0.0
26/07:30pm 23.8 20.4 10.5 43 7.4 SW 19 24 10 13 1010.5 1010.4 0.0
26/07:00pm 25.2 21.7 11.0 41 8.0 SW 20 26 11 14 1010.2 1010.1 0.0
26/06:30pm 26.3 22.7 10.5 37 8.9 SSW 20 28 11 15 1010.0 1009.9 0.0
26/06:00pm 27.6 24.1 10.8 35 9.5 SSW 20 32 11 17 1009.8 1009.7 0.0
26/05:30pm 28.2 24.3 10.9 34 9.9 SW 22 32 12 17 1009.7 1009.6 0.0
26/05:00pm 28.9 24.8 11.5 34 10.0 SSW 24 37 13 20 1009.4 1009.3 0.0
26/04:30pm 29.3 26.3 11.8 34 10.2 SSW 19 28 10 15 1009.4 1009.3 0.0
26/04:00pm 29.7 26.4 11.7 33 10.5 SW 20 32 11 17 1009.5 1009.4 0.0
26/03:30pm 29.5 25.8 11.5 33 10.4 SSW 22 32 12 17 1009.7 1009.6 0.0
26/03:00pm 29.7 26.6 11.7 33 10.5 SW 19 35 10 19 1010.0 1009.9 0.0
26/02:30pm 29.4 26.6 11.5 33 10.4 SW 17 24 9 13 1010.4 1010.3 0.0
26/02:00pm 29.0 26.5 11.1 33 10.3 SSW 15 22 8 12 1010.7 1010.6 0.0
26/01:30pm 27.6 25.4 9.4 32 10.1 SSW 11 17 6 9 1011.1 1011.0 0.0
26/01:00pm 26.5 24.1 8.5 32 9.8 SSW 11 20 6 11 1011.5 1011.4 0.0
26/12:30pm 26.8 25.1 8.3 31 10.0 SSW 7 17 4 9 1012.0 1011.9 0.0
26/12:00pm 25.6 23.5 8.1 33 9.4 SSE 9 15 5 8 1012.4 1012.3 0.0
26/11:30am 23.7 21.7 8.6 38 8.1 SSW 9 17 5 9 1012.8 1012.7 0.0
26/11:00am 22.2 20.0 9.4 44 6.9 SSW 11 19 6 10 1013.2 1013.1 0.0
26/10:30am 21.1 19.9 11.7 55 5.2 S 9 15 5 8 1013.2 1013.1 0.0
26/10:00am 19.7 18.8 12.5 63 4.0 S 9 17 5 9 1013.3 1013.2 0.0
26/09:30am 18.4 17.3 13.1 71 3.0 SSE 11 17 6 9 1013.0 1012.9 0.0
26/09:00am 17.6 16.6 13.5 77 2.3 S 11 17 6 9 1013.0 1012.9 0.0
26/08:30am 16.2 15.2 13.3 83 1.6 SSE 11 13 6 7 1012.6 1012.5 0.0
26/08:00am 14.8 14.6 11.9 83 1.6 SW 4 7 2 4 1012.3 1012.2 0.0
26/07:30am 13.9 13.6 11.4 85 1.3 SW 4 4 2 2 1012.2 1012.1 0.0
26/07:00am 13.8 12.6 11.5 86 1.2 SSW 9 13 5 7 1012.2 1012.1 0.0
26/06:30am 14.3 13.5 11.6 84 1.4 SSW 7 9 4 5 1011.8 1011.7 0.0
26/06:00am 14.4 13.6 11.7 84 1.5 WSW 7 15 4 8 1011.4 1011.3 0.0
26/05:30am 14.3 14.4 11.6 84 1.4 ENE 2 4 1 2 1010.1 1010.0 0.0
26/05:00am 14.0 14.4 11.3 84 1.4 CALM 0 0 0 0 1010.5 1010.4 0.0
26/04:30am 13.9 13.2 11.4 85 1.3 S 6 9 3 5 1010.9 1010.8 0.0
26/04:00am 13.5 12.5 11.0 85 1.3 S 7 9 4 5 1011.3 1011.2 0.0
26/03:30am 12.9 11.0 10.4 85 1.3 SSW 11 17 6 9 1011.8 1011.7 0.0
26/03:00am 11.2 10.2 8.8 85 1.2 SW 4 9 2 5 1011.4 1011.3 0.0
26/02:30am 10.2 8.8 7.4 83 1.3 WNW 4 7 2 4 1011.3 1011.2 0.0
26/02:00am 9.9 8.1 7.0 82 1.4 WSW 6 7 3 4 1011.5 1011.4 0.0
26/01:30am 11.6 11.0 7.3 75 2.1 CALM 0 0 0 0 1011.7 1011.6 0.0
26/01:00am 13.3 12.8 9.2 76 2.1 SSW 2 6 1 3 1011.9 1011.8 0.0
26/12:30am 14.3 13.0 9.3 72 2.6 SW 6 7 3 4 1012.8 1012.7 0.0
26/12:00am 14.9 13.7 9.5 70 2.8 SW 6 9 3 5 1012.8 1012.7 0.0
 
Date/Time
CDT
Temp
°C
App
Temp
°C
Dew
Point
Rel
Hum
%
Delta-T
°C
Wind Press
QNH
hPa
Press
MSL
hPa
Rain
since 9 am
mm
Dir
 
Spd
km/h
Gust
km/h
Spd
kts
Gust
kts
25/11:30pm 15.1 13.4 9.9 71 2.7 SW 9 15 5 8 1013.3 1013.2 0.0
25/11:00pm 14.7 12.9 9.5 71 2.7 SW 9 11 5 6 1013.1 1013.0 0.0
25/10:30pm 14.7 13.2 9.1 69 2.9 SW 7 9 4 5 1013.1 1013.0 0.0
25/10:00pm 15.5 14.0 9.0 65 3.3 SW 7 11 4 6 1012.9 1012.8 0.0
25/09:30pm 16.4 14.5 9.1 62 3.8 SW 9 13 5 7 1013.2 1013.1 0.0
25/09:00pm 17.5 14.5 9.4 59 4.2 SW 15 19 8 10 1012.7 1012.6 0.0
25/08:30pm 18.9 15.1 9.7 55 4.9 SW 20 24 11 13 1012.7 1012.6 0.0
25/08:00pm 20.5 16.6 9.4 49 5.9 SW 20 26 11 14 1012.5 1012.4 0.0
25/07:30pm 22.2 18.2 9.0 43 7.1 SW 20 26 11 14 1012.2 1012.1 0.0
25/07:00pm 24.1 20.4 8.1 36 8.5 SW 17 24 9 13 1011.7 1011.6 0.0
25/06:30pm 24.9 20.8 8.0 34 9.0 SW 19 24 10 13 1011.5 1011.4 0.0
25/06:00pm 25.6 21.6 8.1 33 9.4 SSW 19 24 10 13 1011.4 1011.3 0.0
25/05:30pm 25.9 21.3 8.0 32 9.6 SSW 22 33 12 18 1011.6 1011.5 0.0
25/05:00pm 26.5 21.7 7.5 30 10.1 SW 22 35 12 19 1011.6 1011.5 0.0
25/04:30pm 28.1 24.4 6.2 25 11.5 SW 15 26 8 14 1011.6 1011.5 0.0
25/04:00pm 27.4 23.9 5.6 25 11.3 SW 13 24 7 13 1012.0 1011.9 0.0
25/03:30pm 26.7 23.2 5.6 26 10.9 S 13 24 7 13 1012.4 1012.3 0.0
25/03:00pm 26.5 23.2 6.5 28 10.5 SSW 13 20 7 11 1012.8 1012.7 0.0
25/02:30pm 25.8 22.0 5.9 28 10.3 SSE 15 20 8 11 1013.5 1013.4 0.0
25/02:00pm 24.8 22.2 6.1 30 9.6 SE 9 15 5 8 1014.0 1013.9 0.0
25/01:30pm 23.8 21.3 6.6 33 8.9 SE 9 17 5 9 1014.5 1014.4 0.0
25/01:00pm 23.4 20.2 6.7 34 8.6 S 13 20 7 11 1015.4 1015.3 0.0
25/12:30pm 22.7 19.9 6.9 36 8.1 SSW 11 20 6 11 1015.8 1015.7 0.0
25/12:00pm 21.9 19.6 7.3 39 7.5 S 9 17 5 9 1016.5 1016.4 0.0
25/11:30am 20.5 17.9 7.8 44 6.6 SSE 11 20 6 11 1016.9 1016.8 0.0
25/11:00am 19.9 17.7 9.2 50 5.7 SE 11 26 6 14 1017.1 1017.0 0.0
25/10:30am 18.6 15.6 9.4 55 4.8 SSE 15 22 8 12 1017.3 1017.2 0.0
25/10:00am 17.4 14.9 9.6 60 4.1 SSE 13 20 7 11 1017.7 1017.6 0.0
25/09:30am 15.6 12.1 8.8 64 3.5 SE 17 24 9 13 1017.7 1017.6 0.0

Other Formats:

Comma delimited format used in spreadsheet applications
http://www.bom.gov.au/fwo/IDS60801/IDS60801.95815.axf

JavaScript Object Notation format (JSON) in row-major order
http://www.bom.gov.au/fwo/IDS60801/IDS60801.95815.json